Time;durP1;ratioP1;P1;durP2;ratioP2;P2;SDS_P1;SDS_P2;PMS_P1;PMS_P2;Temp;Humidity;BMP_temperature;BMP_pressure;BME280_temperature;BME280_humidity;BME280_pressure;Samples;Min_cycle;Max_cycle;Signal;HPM_P1;HPM_P2
2021/10/27 00:00:37;;;;;;;63.20;24.63;;;;;;;;;;5007183;28;20398;-77
2021/10/27 00:03:03;;;;;;;56.88;24.35;;;;;;;;;;5017114;28;20145;-77
2021/10/27 00:05:29;;;;;;;50.97;24.05;;;;;;;;;;5006622;28;20604;-77
2021/10/27 00:07:56;;;;;;;56.70;23.65;;;;;;;;;;5009249;28;20042;-77
2021/10/27 00:10:22;;;;;;;57.08;25.77;;;;;;;;;;5008661;28;20504;-77
2021/10/27 00:12:48;;;;;;;56.10;24.67;;;;;;;;;;5008658;28;20038;-77
2021/10/27 00:15:15;;;;;;;56.85;26.00;;;;;;;;;;5006046;28;20041;-77
2021/10/27 00:17:42;;;;;;;59.67;27.30;;;;;;;;;;5009295;28;20517;-77
2021/10/27 00:20:09;;;;;;;64.90;28.75;;;;;;;;;;5009848;28;20490;-77
2021/10/27 00:22:35;;;;;;;53.70;27.23;;;;;;;;;;5006046;28;20077;-77
2021/10/27 00:25:02;;;;;;;58.80;27.67;;;;;;;;;;5008493;28;20141;-77
2021/10/27 00:27:28;;;;;;;56.33;27.58;;;;;;;;;;5009713;28;20505;-77
2021/10/27 00:29:54;;;;;;;63.95;27.80;;;;;;;;;;5008038;28;20390;-77
2021/10/27 00:32:20;;;;;;;56.00;26.42;;;;;;;;;;5008641;28;20516;-77
2021/10/27 00:34:46;;;;;;;50.80;25.50;;;;;;;;;;5004240;28;20038;-77
2021/10/27 00:37:13;;;;;;;53.75;27.38;;;;;;;;;;5009498;28;20132;-77
2021/10/27 00:39:39;;;;;;;59.03;24.95;;;;;;;;;;5006560;28;20041;-77
2021/10/27 00:42:05;;;;;;;52.30;23.67;;;;;;;;;;5008589;28;20081;-77
2021/10/27 00:44:32;;;;;;;56.72;23.70;;;;;;;;;;5009463;28;20364;-77
2021/10/27 00:46:59;;;;;;;55.47;22.58;;;;;;;;;;5008020;28;20038;-77
2021/10/27 00:49:26;;;;;;;52.95;22.65;;;;;;;;;;5002522;28;20053;-77
2021/10/27 00:51:52;;;;;;;48.88;21.10;;;;;;;;;;5008602;28;20293;-77
2021/10/27 00:54:19;;;;;;;43.63;19.15;;;;;;;;;;5009574;28;20046;-77
2021/10/27 00:56:45;;;;;;;49.63;21.48;;;;;;;;;;5008270;28;20145;-77
2021/10/27 00:59:11;;;;;;;47.95;20.20;;;;;;;;;;5007405;28;20038;-77
2021/10/27 01:01:37;;;;;;;49.40;21.40;;;;;;;;;;5006485;28;20387;-77
2021/10/27 01:04:04;;;;;;;49.35;23.15;;;;;;;;;;5009498;28;20046;-77
2021/10/27 01:06:30;;;;;;;53.28;21.73;;;;;;;;;;5000008;28;20124;-75
2021/10/27 01:08:57;;;;;;;56.70;23.10;;;;;;;;;;5005920;28;20157;-77
2021/10/27 01:11:23;;;;;;;47.88;22.55;;;;;;;;;;5019335;28;20117;-77
2021/10/27 01:13:49;;;;;;;49.60;21.88;;;;;;;;;;4991495;28;20426;-77
2021/10/27 01:16:16;;;;;;;50.10;22.60;;;;;;;;;;4991967;28;20395;-77
2021/10/27 01:18:42;;;;;;;43.45;21.38;;;;;;;;;;5008372;28;20042;-77
2021/10/27 01:21:08;;;;;;;51.05;23.35;;;;;;;;;;5009883;28;20061;-77
2021/10/27 01:23:34;;;;;;;47.13;22.15;;;;;;;;;;5020350;28;20115;-77
2021/10/27 01:26:05;;;;;;;50.75;23.60;;;;;;;;;;5009496;28;20084;-77
2021/10/27 01:28:31;;;;;;;47.63;23.10;;;;;;;;;;5037135;28;20042;-77
2021/10/27 01:30:57;;;;;;;46.85;22.73;;;;;;;;;;5006371;28;20046;-77
2021/10/27 01:33:23;;;;;;;49.55;24.23;;;;;;;;;;5017643;28;20076;-77
2021/10/27 01:35:50;;;;;;;47.92;25.05;;;;;;;;;;5007481;28;20065;-77
2021/10/27 01:38:16;;;;;;;56.03;24.60;;;;;;;;;;5008962;28;20046;-77
2021/10/27 01:40:42;;;;;;;48.10;25.25;;;;;;;;;;5022313;28;20418;-77
2021/10/27 01:43:08;;;;;;;56.67;24.95;;;;;;;;;;5011376;28;20161;-77
2021/10/27 01:48:37;;;;;;;43.47;23.38;;;;;;;;;;5010305;28;20545;-77
2021/10/27 01:51:03;;;;;;;48.60;22.58;;;;;;;;;;5012360;28;20512;-77
2021/10/27 01:53:30;;;;;;;43.80;22.55;;;;;;;;;;5029366;28;20053;-77
2021/10/27 01:55:56;;;;;;;47.63;22.23;;;;;;;;;;5012445;28;20450;-77
2021/10/27 01:58:22;;;;;;;48.45;22.05;;;;;;;;;;5025485;28;20134;-77
2021/10/27 02:00:48;;;;;;;43.08;22.00;;;;;;;;;;5007193;28;20042;-77
2021/10/27 02:03:14;;;;;;;50.20;21.33;;;;;;;;;;5011067;28;20042;-77
2021/10/27 02:05:40;;;;;;;46.75;21.90;;;;;;;;;;5011658;28;20116;-77
2021/10/27 02:08:06;;;;;;;43.33;20.40;;;;;;;;;;5012242;28;20042;-77
2021/10/27 02:10:33;;;;;;;47.95;20.27;;;;;;;;;;5010807;28;20050;-77
2021/10/27 02:12:59;;;;;;;43.40;20.95;;;;;;;;;;5007479;28;20631;-77
2021/10/27 02:15:25;;;;;;;52.80;20.30;;;;;;;;;;5003414;28;20081;-77
2021/10/27 02:17:51;;;;;;;41.20;19.55;;;;;;;;;;5004263;28;20084;-77
2021/10/27 02:20:17;;;;;;;50.63;20.02;;;;;;;;;;5010459;28;20057;-77
2021/10/27 02:22:43;;;;;;;44.03;19.00;;;;;;;;;;5011167;28;20494;-77
2021/10/27 02:25:10;;;;;;;46.05;19.48;;;;;;;;;;5008326;28;20038;-77
2021/10/27 02:27:36;;;;;;;42.78;18.27;;;;;;;;;;5008868;28;20988;-77
2021/10/27 02:30:02;;;;;;;44.00;17.70;;;;;;;;;;5011332;28;20053;-77
2021/10/27 02:32:28;;;;;;;45.28;18.30;;;;;;;;;;5009160;28;20394;-77
2021/10/27 02:34:55;;;;;;;49.38;18.85;;;;;;;;;;5009686;28;20034;-77
2021/10/27 02:37:21;;;;;;;49.63;17.15;;;;;;;;;;5010376;28;20101;-77
2021/10/27 02:39:47;;;;;;;48.72;17.10;;;;;;;;;;5008337;28;20042;-77
2021/10/27 02:42:13;;;;;;;42.38;17.02;;;;;;;;;;5010832;28;20129;-77
2021/10/27 02:44:39;;;;;;;42.55;17.80;;;;;;;;;;5007780;28;20049;-77
2021/10/27 02:47:05;;;;;;;43.03;16.52;;;;;;;;;;4994992;28;21835;-77
2021/10/27 02:49:31;;;;;;;37.85;16.40;;;;;;;;;;5009406;28;20105;-77
2021/10/27 02:51:57;;;;;;;52.80;16.60;;;;;;;;;;5006292;28;20042;-77
2021/10/27 02:54:24;;;;;;;42.67;16.65;;;;;;;;;;5008283;28;20456;-77
2021/10/27 02:56:50;;;;;;;43.55;15.70;;;;;;;;;;5008906;28;20073;-77
2021/10/27 02:59:16;;;;;;;48.00;14.98;;;;;;;;;;5004351;28;20114;-77
2021/10/27 03:01:42;;;;;;;37.42;14.60;;;;;;;;;;5011424;28;20083;-77
2021/10/27 03:04:09;;;;;;;38.08;14.52;;;;;;;;;;5010649;28;20073;-77
2021/10/27 03:06:35;;;;;;;38.63;14.13;;;;;;;;;;5007393;28;20050;-77
2021/10/27 03:09:01;;;;;;;37.97;14.38;;;;;;;;;;5026833;28;20048;-77
2021/10/27 03:11:27;;;;;;;43.90;14.57;;;;;;;;;;5010201;28;20066;-77
2021/10/27 03:13:53;;;;;;;38.97;13.73;;;;;;;;;;5039144;28;20053;-77
2021/10/27 03:16:19;;;;;;;45.35;13.50;;;;;;;;;;5026369;28;20038;-77
2021/10/27 03:18:46;;;;;;;40.63;13.32;;;;;;;;;;5010424;28;20080;-77
2021/10/27 03:21:12;;;;;;;40.70;13.63;;;;;;;;;;5003382;28;20050;-77
2021/10/27 03:23:38;;;;;;;39.67;13.23;;;;;;;;;;5008364;28;20065;-77
2021/10/27 03:26:05;;;;;;;30.77;10.63;;;;;;;;;;5006367;28;20397;-77
2021/10/27 03:28:31;;;;;;;35.17;10.70;;;;;;;;;;5009887;28;20041;-77
2021/10/27 03:30:57;;;;;;;37.65;8.98;;;;;;;;;;5007677;28;20038;-77
2021/10/27 03:33:23;;;;;;;30.98;9.40;;;;;;;;;;5009274;28;20099;-77
2021/10/27 03:35:50;;;;;;;44.58;10.10;;;;;;;;;;5011314;28;20037;-77
2021/10/27 03:38:16;;;;;;;34.55;7.25;;;;;;;;;;5007860;28;20092;-77
2021/10/27 03:40:44;;;;;;;36.75;7.93;;;;;;;;;;5006180;28;20042;-77
2021/10/27 03:43:10;;;;;;;29.50;5.82;;;;;;;;;;5007602;28;20054;-77
2021/10/27 03:45:36;;;;;;;33.25;5.68;;;;;;;;;;5006823;28;20046;-77
2021/10/27 03:48:03;;;;;;;30.48;5.53;;;;;;;;;;5010153;28;20137;-77
2021/10/27 03:50:29;;;;;;;25.23;4.72;;;;;;;;;;5009926;28;20390;-77
2021/10/27 03:52:56;;;;;;;31.88;5.57;;;;;;;;;;5006809;28;20041;-77
2021/10/27 03:55:22;;;;;;;21.17;4.30;;;;;;;;;;5005359;28;20057;-77
2021/10/27 03:57:48;;;;;;;34.85;5.57;;;;;;;;;;5005653;28;20046;-77
2021/10/27 04:00:14;;;;;;;27.70;4.35;;;;;;;;;;5006631;28;20057;-77
2021/10/27 04:02:41;;;;;;;19.60;4.47;;;;;;;;;;5005428;28;20044;-77
2021/10/27 04:05:08;;;;;;;28.40;5.53;;;;;;;;;;5007589;28;20034;-77
2021/10/27 04:07:37;;;;;;;24.23;4.63;;;;;;;;;;5006010;28;20445;-77
2021/10/27 04:10:11;;;;;;;30.55;4.68;;;;;;;;;;4989990;28;20050;-77
2021/10/27 04:12:38;;;;;;;36.60;5.13;;;;;;;;;;5003574;28;20041;-77
2021/10/27 04:15:05;;;;;;;24.60;4.35;;;;;;;;;;5010798;28;20053;-77
2021/10/27 04:17:32;;;;;;;28.55;4.88;;;;;;;;;;5008861;28;20044;-77
2021/10/27 04:19:58;;;;;;;25.88;4.20;;;;;;;;;;4988297;28;20096;-77
2021/10/27 04:22:24;;;;;;;25.35;4.70;;;;;;;;;;5009815;28;20038;-77
2021/10/27 04:24:51;;;;;;;28.42;4.53;;;;;;;;;;5001503;28;20053;-78
2021/10/27 04:27:17;;;;;;;25.33;4.85;;;;;;;;;;5001393;28;20077;-77
2021/10/27 04:29:43;;;;;;;21.88;4.65;;;;;;;;;;5000981;28;20058;-77
2021/10/27 04:32:09;;;;;;;22.48;4.57;;;;;;;;;;5008291;28;20077;-77
2021/10/27 04:34:35;;;;;;;29.10;4.45;;;;;;;;;;4993044;28;20046;-77
2021/10/27 04:37:02;;;;;;;23.13;3.85;;;;;;;;;;5009327;28;20056;-77
2021/10/27 04:39:28;;;;;;;26.55;5.15;;;;;;;;;;5003007;28;20053;-77
2021/10/27 04:41:54;;;;;;;23.73;4.22;;;;;;;;;;5000433;28;20076;-77
2021/10/27 04:44:20;;;;;;;27.98;5.35;;;;;;;;;;5002169;28;20074;-77
2021/10/27 04:46:46;;;;;;;25.08;4.65;;;;;;;;;;5010468;28;20038;-77
2021/10/27 04:49:12;;;;;;;27.77;4.78;;;;;;;;;;5010995;28;20046;-77
2021/10/27 04:51:39;;;;;;;22.92;4.63;;;;;;;;;;5019936;28;20049;-77
2021/10/27 04:54:05;;;;;;;34.90;4.88;;;;;;;;;;5008564;28;20417;-77
2021/10/27 04:56:31;;;;;;;34.05;5.25;;;;;;;;;;5021133;28;20054;-77
2021/10/27 04:58:57;;;;;;;31.83;5.85;;;;;;;;;;5020831;28;20046;-77
2021/10/27 05:01:23;;;;;;;22.52;3.67;;;;;;;;;;5010822;28;20498;-77
2021/10/27 05:03:49;;;;;;;24.63;4.93;;;;;;;;;;5005886;28;20046;-77
2021/10/27 05:06:16;;;;;;;22.73;4.35;;;;;;;;;;5002768;28;20073;-77
2021/10/27 05:08:45;;;;;;;25.23;4.50;;;;;;;;;;5005718;28;20501;-77
2021/10/27 05:11:12;;;;;;;23.98;3.97;;;;;;;;;;5008344;28;20087;-77
2021/10/27 05:13:38;;;;;;;26.77;4.53;;;;;;;;;;5007808;28;20131;-77
2021/10/27 05:16:04;;;;;;;26.42;4.97;;;;;;;;;;5011198;28;20038;-77
2021/10/27 05:18:30;;;;;;;25.88;5.70;;;;;;;;;;5009366;28;20048;-77
2021/10/27 05:20:56;;;;;;;26.63;5.35;;;;;;;;;;5012788;28;20073;-77
2021/10/27 05:23:23;;;;;;;29.08;5.55;;;;;;;;;;5012786;28;20068;-77
2021/10/27 05:25:49;;;;;;;31.48;4.32;;;;;;;;;;5009377;28;20064;-77
2021/10/27 05:28:15;;;;;;;22.80;4.30;;;;;;;;;;5028971;28;20104;-77
2021/10/27 05:30:41;;;;;;;30.80;4.72;;;;;;;;;;5011911;28;20056;-77
2021/10/27 05:33:08;;;;;;;28.23;5.70;;;;;;;;;;5006348;28;20072;-78
2021/10/27 05:35:34;;;;;;;26.58;5.50;;;;;;;;;;5012956;28;20042;-77
2021/10/27 05:38:01;;;;;;;25.70;4.40;;;;;;;;;;5012075;28;20049;-81
2021/10/27 05:40:27;;;;;;;23.55;5.43;;;;;;;;;;4993968;28;20518;-77
2021/10/27 05:42:54;;;;;;;25.48;5.20;;;;;;;;;;5012278;28;20049;-76
2021/10/27 05:45:23;;;;;;;24.38;5.18;;;;;;;;;;5004974;28;20445;-77
2021/10/27 05:47:52;;;;;;;27.48;6.15;;;;;;;;;;5009054;28;20050;-77
2021/10/27 05:55:34;;;;;;;25.00;4.75;;;;;;;;;;5023629;28;20057;-77
2021/10/27 05:58:01;;;;;;;23.80;4.63;;;;;;;;;;5017382;28;20046;-78
2021/10/27 06:00:27;;;;;;;26.00;4.50;;;;;;;;;;5011511;28;20042;-78
2021/10/27 06:02:53;;;;;;;20.48;4.55;;;;;;;;;;5009727;28;20077;-76
2021/10/27 06:05:20;;;;;;;25.75;5.78;;;;;;;;;;5009965;28;20145;-77
2021/10/27 06:07:46;;;;;;;31.48;4.80;;;;;;;;;;5007767;28;20042;-77
2021/10/27 06:10:19;;;;;;;35.50;5.50;;;;;;;;;;5007921;28;20491;-77
2021/10/27 06:12:45;;;;;;;24.48;4.00;;;;;;;;;;5006323;28;20498;-77
2021/10/27 06:15:11;;;;;;;21.98;5.63;;;;;;;;;;5024431;28;20046;-78
2021/10/27 06:17:38;;;;;;;22.98;4.63;;;;;;;;;;5008396;28;20065;-77
2021/10/27 06:20:05;;;;;;;18.00;4.25;;;;;;;;;;5040897;28;20764;-77
2021/10/27 06:22:31;;;;;;;26.35;5.43;;;;;;;;;;5009054;28;20100;-77
2021/10/27 06:24:59;;;;;;;19.67;3.97;;;;;;;;;;5041948;28;20485;-75
2021/10/27 06:27:26;;;;;;;20.63;4.15;;;;;;;;;;5014328;28;20050;-78
2021/10/27 06:29:56;;;;;;;26.40;4.78;;;;;;;;;;5013566;28;20053;-78
2021/10/27 06:35:02;;;;;;;27.10;5.93;;;;;;;;;;5011028;28;20096;-77
2021/10/27 06:48:09;;;;;;;30.15;8.60;;;;;;;;;;5024931;28;20053;-77
2021/10/27 06:50:35;;;;;;;33.28;9.90;;;;;;;;;;5040168;28;20053;-77
2021/10/27 06:53:02;;;;;;;27.48;9.07;;;;;;;;;;5001172;28;20509;-77
2021/10/27 06:55:28;;;;;;;32.03;10.98;;;;;;;;;;5000854;28;20054;-77
2021/10/27 06:57:56;;;;;;;29.63;10.75;;;;;;;;;;4997198;28;20074;-77
2021/10/27 07:00:34;;;;;;;36.03;12.05;;;;;;;;;;5011221;28;20052;-79
2021/10/27 07:16:26;;;;;;;32.72;15.55;;;;;;;;;;5022500;28;20152;-77
2021/10/27 07:18:53;;;;;;;45.15;17.20;;;;;;;;;;5027909;28;20776;-77
2021/10/27 07:21:20;;;;;;;34.75;17.73;;;;;;;;;;5013216;28;20074;-77
2021/10/27 07:23:47;;;;;;;35.05;16.98;;;;;;;;;;5012910;28;20037;-77
2021/10/27 07:26:15;;;;;;;39.38;18.77;;;;;;;;;;5027383;28;20050;-77
2021/10/27 07:28:43;;;;;;;41.30;19.05;;;;;;;;;;5011893;28;20079;-77
2021/10/27 07:31:14;;;;;;;37.55;18.83;;;;;;;;;;5027668;28;20052;-77
2021/10/27 07:33:40;;;;;;;48.35;21.25;;;;;;;;;;5011172;28;20133;-77
2021/10/27 07:36:24;;;;;;;45.13;19.55;;;;;;;;;;5027907;28;20038;-77
2021/10/27 07:41:35;;;;;;;37.08;20.85;;;;;;;;;;5027300;28;20046;-77
2021/10/27 07:44:05;;;;;;;48.22;21.40;;;;;;;;;;5011002;28;20057;-77
2021/10/27 07:46:31;;;;;;;43.42;23.02;;;;;;;;;;5027960;28;20080;-77
2021/10/27 07:48:57;;;;;;;43.25;21.33;;;;;;;;;;5010665;28;20500;-77
2021/10/27 07:51:23;;;;;;;42.25;21.67;;;;;;;;;;5027167;28;20152;-77
2021/10/27 07:53:52;;;;;;;38.15;21.15;;;;;;;;;;5012004;28;20049;-77
2021/10/27 07:56:19;;;;;;;51.50;24.88;;;;;;;;;;5027381;28;20080;-77
2021/10/27 07:58:48;;;;;;;46.13;23.67;;;;;;;;;;4991640;28;20459;-77
2021/10/27 08:01:16;;;;;;;43.80;24.13;;;;;;;;;;5010437;28;20123;-77
2021/10/27 08:03:42;;;;;;;50.53;24.73;;;;;;;;;;5011330;28;20525;-77
2021/10/27 08:06:10;;;;;;;43.80;24.63;;;;;;;;;;5010740;28;20057;-77
2021/10/27 08:08:36;;;;;;;43.13;26.33;;;;;;;;;;5010576;28;20073;-77
2021/10/27 08:11:02;;;;;;;47.15;25.40;;;;;;;;;;4991468;28;20034;-77
2021/10/27 08:13:29;;;;;;;45.55;24.52;;;;;;;;;;5001084;28;20042;-77
2021/10/27 08:15:56;;;;;;;51.65;25.15;;;;;;;;;;4992554;28;20061;-77
2021/10/27 08:18:22;;;;;;;35.03;20.20;;;;;;;;;;5012352;28;20121;-77
2021/10/27 08:20:50;;;;;;;34.10;21.25;;;;;;;;;;5012192;28;20053;-77
2021/10/27 08:23:19;;;;;;;37.50;21.02;;;;;;;;;;5011621;28;20405;-77
2021/10/27 08:25:47;;;;;;;40.90;21.45;;;;;;;;;;5012317;28;20508;-77
2021/10/27 08:28:15;;;;;;;32.13;18.88;;;;;;;;;;5011787;28;20070;-78
2021/10/27 08:30:53;;;;;;;43.00;18.60;;;;;;;;;;5011586;28;20060;-77
2021/10/27 08:33:22;;;;;;;37.17;18.50;;;;;;;;;;5010449;28;20394;-77
2021/10/27 08:35:49;;;;;;;33.70;16.98;;;;;;;;;;5010571;28;20064;-77
2021/10/27 08:38:15;;;;;;;27.73;17.23;;;;;;;;;;5010123;28;20080;-77
2021/10/27 08:40:43;;;;;;;34.85;16.20;;;;;;;;;;5010186;28;20050;-77
2021/10/27 08:43:10;;;;;;;26.52;14.77;;;;;;;;;;5011450;28;20118;-77
2021/10/27 08:45:36;;;;;;;32.20;14.93;;;;;;;;;;5012101;28;20045;-77
2021/10/27 08:48:04;;;;;;;28.00;14.50;;;;;;;;;;5011673;28;20095;-77
2021/10/27 08:50:30;;;;;;;33.38;14.70;;;;;;;;;;5011238;28;20155;-77
2021/10/27 08:52:56;;;;;;;28.17;15.88;;;;;;;;;;5014569;28;20053;-77
2021/10/27 08:55:22;;;;;;;24.40;14.85;;;;;;;;;;5014092;28;20509;-77
2021/10/27 08:57:50;;;;;;;30.70;14.23;;;;;;;;;;5013876;28;20050;-77
2021/10/27 09:00:22;;;;;;;25.83;14.18;;;;;;;;;;5015644;28;20053;-77
2021/10/27 09:03:02;;;;;;;30.60;14.65;;;;;;;;;;5011280;28;20047;-77
2021/10/27 09:05:43;;;;;;;27.58;14.98;;;;;;;;;;5008205;28;20128;-77
2021/10/27 09:17:06;;;;;;;27.92;14.00;;;;;;;;;;5013039;28;20046;-77
2021/10/27 09:34:00;;;;;;;27.60;12.60;;;;;;;;;;5025619;28;20115;-78
2021/10/27 09:36:42;;;;;;;22.50;11.70;;;;;;;;;;5012311;28;20050;-78
2021/10/27 09:39:36;;;;;;;17.52;10.35;;;;;;;;;;5014654;28;20422;-78
2021/10/27 09:44:51;;;;;;;18.35;10.02;;;;;;;;;;5013010;28;20050;-78
2021/10/27 09:47:55;;;;;;;23.35;9.52;;;;;;;;;;5012872;28;20100;-78
2021/10/27 09:56:11;;;;;;;19.55;7.72;;;;;;;;;;5028685;28;20054;-77
2021/10/27 10:04:15;;;;;;;19.30;8.85;;;;;;;;;;5027520;28;20141;-78
2021/10/27 10:06:43;;;;;;;20.13;8.43;;;;;;;;;;5012621;28;20046;-78
2021/10/27 10:09:10;;;;;;;21.92;8.27;;;;;;;;;;5011831;28;20512;-78
2021/10/27 10:11:36;;;;;;;15.00;6.75;;;;;;;;;;5012179;28;20042;-77
2021/10/27 10:14:04;;;;;;;15.05;6.95;;;;;;;;;;5012200;28;20053;-78
2021/10/27 10:16:33;;;;;;;22.00;7.90;;;;;;;;;;5012717;28;20410;-78
2021/10/27 10:19:05;;;;;;;19.50;7.95;;;;;;;;;;5011585;28;20049;-79
2021/10/27 10:21:32;;;;;;;16.67;8.10;;;;;;;;;;5009112;28;20375;-78
2021/10/27 10:24:24;;;;;;;14.20;7.00;;;;;;;;;;5028885;28;20046;-78
2021/10/27 10:26:51;;;;;;;20.50;8.45;;;;;;;;;;5011617;28;20041;-79
2021/10/27 10:29:52;;;;;;;18.02;8.90;;;;;;;;;;5011342;28;20081;-78
2021/10/27 10:32:27;;;;;;;19.25;8.63;;;;;;;;;;5010614;28;20118;-79
2021/10/27 10:34:56;;;;;;;15.00;8.20;;;;;;;;;;5013500;28;20126;-79
2021/10/27 10:37:33;;;;;;;20.27;9.10;;;;;;;;;;5009032;28;20132;-78
2021/10/27 10:40:07;;;;;;;19.73;8.82;;;;;;;;;;5011677;28;20104;-78
2021/10/27 10:42:45;;;;;;;;;;;;;;;;;;5008505;28;20053;-78
2021/10/27 11:22:22;;;;;;;20.27;7.32;;;;;;;;;;5021520;28;20062;-79
2021/10/27 11:24:01;;;;;;;14.45;5.75;;;;;;;;;;5007705;28;20046;-78
2021/10/27 11:40:09;;;;;;;17.00;6.20;;;;;;;;;;5007385;28;20132;-80
2021/10/27 11:42:42;;;;;;;14.23;5.72;;;;;;;;;;5009039;28;20048;-80
2021/10/27 11:45:15;;;;;;;16.30;6.53;;;;;;;;;;4991532;28;20088;-80
2021/10/27 11:47:43;;;;;;;13.75;5.53;;;;;;;;;;5024473;28;20053;-80
2021/10/27 11:50:11;;;;;;;16.25;5.05;;;;;;;;;;5006916;28;20076;-80
2021/10/27 11:52:38;;;;;;;16.50;5.05;;;;;;;;;;5022657;28;20042;-79
2021/10/27 11:55:05;;;;;;;16.20;6.45;;;;;;;;;;5006286;28;20089;-79
2021/10/27 11:57:32;;;;;;;20.35;6.20;;;;;;;;;;5005969;28;20092;-80
2021/10/27 11:59:59;;;;;;;16.40;4.55;;;;;;;;;;5005740;28;20366;-80
2021/10/27 12:02:27;;;;;;;15.38;4.82;;;;;;;;;;5023872;28;20042;-79
2021/10/27 12:04:54;;;;;;;16.17;5.80;;;;;;;;;;5009131;28;20058;-79
2021/10/27 12:07:39;;;;;;;15.38;5.03;;;;;;;;;;5024013;28;20052;-79
2021/10/27 12:10:16;;;;;;;11.00;4.63;;;;;;;;;;5008664;28;20124;-79
2021/10/27 12:17:50;;;;;;;11.00;4.90;;;;;;;;;;5006189;28;20120;-79
2021/10/27 12:20:28;;;;;;;13.52;6.35;;;;;;;;;;5005842;28;20457;-80
2021/10/27 12:22:56;;;;;;;14.35;5.50;;;;;;;;;;5008656;28;20046;-79
2021/10/27 12:25:22;;;;;;;13.38;4.95;;;;;;;;;;5023252;28;20502;-80
2021/10/27 12:27:48;;;;;;;10.77;5.38;;;;;;;;;;5005792;28;20037;-79
2021/10/27 12:30:17;;;;;;;12.40;5.38;;;;;;;;;;5005185;28;20058;-79
2021/10/27 12:32:50;;;;;;;16.95;6.82;;;;;;;;;;5004291;28;20434;-79
2021/10/27 12:35:16;;;;;;;17.63;5.67;;;;;;;;;;5004586;28;20045;-79
2021/10/27 12:37:54;;;;;;;16.88;5.93;;;;;;;;;;5005007;28;20301;-80
2021/10/27 12:40:25;;;;;;;17.48;6.07;;;;;;;;;;5006778;28;20477;-79
2021/10/27 12:42:59;;;;;;;14.13;4.60;;;;;;;;;;5023480;28;20413;-79
2021/10/27 12:45:32;;;;;;;13.90;5.35;;;;;;;;;;5006859;28;20112;-79
2021/10/27 12:48:07;;;;;;;12.50;6.15;;;;;;;;;;5008388;28;20129;-79
2021/10/27 12:50:33;;;;;;;16.02;6.05;;;;;;;;;;5009271;28;20528;-77
2021/10/27 12:53:03;;;;;;;13.75;5.93;;;;;;;;;;5009789;28;20049;-77
2021/10/27 12:55:32;;;;;;;17.40;5.75;;;;;;;;;;5025593;28;20058;-76
2021/10/27 12:58:13;;;;;;;15.85;5.40;;;;;;;;;;5008992;28;20468;-77
2021/10/27 13:00:49;;;;;;;15.85;6.72;;;;;;;;;;5026159;28;20196;-77
2021/10/27 13:03:26;;;;;;;14.00;6.30;;;;;;;;;;5011378;28;20053;-77
2021/10/27 13:06:01;;;;;;;11.75;5.40;;;;;;;;;;5009478;28;21089;-77
2021/10/27 13:11:09;;;;;;;17.98;5.97;;;;;;;;;;5025954;28;20050;-74
2021/10/27 13:19:04;;;;;;;14.95;6.90;;;;;;;;;;5019798;28;20045;-74
2021/10/27 13:21:43;;;;;;;15.85;6.50;;;;;;;;;;5045503;28;20054;-73
2021/10/27 13:29:46;;;;;;;11.05;5.72;;;;;;;;;;5007180;28;20054;-74
2021/10/27 13:32:17;;;;;;;15.07;5.65;;;;;;;;;;5003505;28;20173;-74
2021/10/27 13:34:43;;;;;;;14.93;6.35;;;;;;;;;;5003127;28;20054;-74
2021/10/27 13:37:10;;;;;;;13.65;5.50;;;;;;;;;;5006537;28;20045;-74
2021/10/27 13:39:37;;;;;;;11.88;5.95;;;;;;;;;;5009601;28;20042;-73
2021/10/27 13:42:11;;;;;;;13.40;5.70;;;;;;;;;;5004669;28;20045;-73
2021/10/27 13:44:55;;;;;;;14.20;5.93;;;;;;;;;;5003515;28;21322;-73
2021/10/27 13:47:27;;;;;;;;;;;;;;;;;;5006138;28;20115;-73
2021/10/27 13:57:42;;;;;;;13.75;5.10;;;;;;;;;;5042059;28;20154;-73
2021/10/27 13:58:33;;;;;;;12.93;5.32;;;;;;;;;;5011533;28;20054;-74
2021/10/27 14:09:07;;;;;;;13.15;5.60;;;;;;;;;;5020386;28;20499;-74
2021/10/27 14:11:53;;;;;;;11.95;5.38;;;;;;;;;;5012377;28;20393;-74
2021/10/27 14:14:29;;;;;;;12.15;4.93;;;;;;;;;;5029665;28;20068;-75
2021/10/27 14:19:31;;;;;;;11.50;5.00;;;;;;;;;;5030764;28;20046;-73
2021/10/27 15:19:44;;;;;;;19.17;8.57;;;;;;;;;;5041237;28;20057;-71
2021/10/27 15:22:16;;;;;;;11.50;7.50;;;;;;;;;;5008926;28;20072;-70
2021/10/27 15:30:19;;;;;;;18.25;9.73;;;;;;;;;;5022605;28;20066;-71
2021/10/27 15:32:50;;;;;;;16.85;9.05;;;;;;;;;;5008968;28;20121;-70
2021/10/27 15:35:35;;;;;;;15.18;9.10;;;;;;;;;;5010801;28;20063;-70
2021/10/27 15:41:13;;;;;;;14.43;8.88;;;;;;;;;;5007960;28;20409;-70
2021/10/27 15:51:52;;;;;;;13.82;8.32;;;;;;;;;;5010900;28;20061;-70
2021/10/27 15:54:19;;;;;;;14.88;7.97;;;;;;;;;;5009789;28;20395;-70
2021/10/27 15:56:45;;;;;;;15.07;7.47;;;;;;;;;;5009435;28;20137;-70
2021/10/27 15:59:12;;;;;;;20.02;9.57;;;;;;;;;;5007254;28;20053;-70
2021/10/27 16:01:38;;;;;;;11.45;7.03;;;;;;;;;;5024529;28;20142;-70
2021/10/27 16:04:05;;;;;;;18.75;8.10;;;;;;;;;;5010170;28;20046;-70
2021/10/27 16:06:39;;;;;;;19.80;8.75;;;;;;;;;;5009081;28;20053;-69
2021/10/27 16:09:08;;;;;;;;;;;;;;;;;;5007002;28;20050;-70
2021/10/27 16:11:34;;;;;;;15.82;7.65;;;;;;;;;;5041269;28;19968;-70
2021/10/27 16:14:00;;;;;;;13.90;7.47;;;;;;;;;;5009502;28;20199;-70
2021/10/27 16:16:28;;;;;;;13.43;7.80;;;;;;;;;;5006695;28;20486;-70
2021/10/27 16:18:54;;;;;;;20.88;8.38;;;;;;;;;;5005942;28;20048;-70
2021/10/27 16:21:21;;;;;;;18.42;7.70;;;;;;;;;;5019302;28;20459;-69
2021/10/27 16:23:47;;;;;;;14.68;7.47;;;;;;;;;;5005127;28;20053;-70
2021/10/27 16:26:13;;;;;;;19.25;7.53;;;;;;;;;;5019913;28;20053;-69
2021/10/27 16:28:40;;;;;;;12.80;7.18;;;;;;;;;;5006472;28;20401;-70
2021/10/27 16:31:07;;;;;;;20.67;7.40;;;;;;;;;;5009623;28;20089;-70
2021/10/27 16:33:34;;;;;;;14.20;6.53;;;;;;;;;;5008646;28;20439;-70
2021/10/27 16:36:00;;;;;;;12.27;6.60;;;;;;;;;;5009439;28;20552;-70
2021/10/27 16:38:26;;;;;;;12.15;6.60;;;;;;;;;;5022159;28;20045;-70
2021/10/27 16:40:53;;;;;;;12.85;6.00;;;;;;;;;;5041732;28;20505;-70
2021/10/27 16:43:19;;;;;;;15.48;6.05;;;;;;;;;;5006608;28;20120;-69
2021/10/27 16:45:46;;;;;;;14.45;6.13;;;;;;;;;;5018901;28;20469;-69
2021/10/27 16:48:13;;;;;;;13.00;5.53;;;;;;;;;;5005926;28;20049;-69
2021/10/27 16:50:39;;;;;;;9.80;5.57;;;;;;;;;;5006117;28;20068;-70
2021/10/27 16:53:05;;;;;;;12.90;5.60;;;;;;;;;;5002885;28;20092;-69
2021/10/27 16:55:31;;;;;;;14.23;5.60;;;;;;;;;;5002689;28;20054;-69
2021/10/27 16:57:58;;;;;;;12.73;5.50;;;;;;;;;;5005509;28;20073;-69
2021/10/27 17:00:28;;;;;;;14.18;5.05;;;;;;;;;;5005641;28;20045;-69
2021/10/27 17:02:55;;;;;;;11.48;5.57;;;;;;;;;;5004050;28;20030;-68
2021/10/27 17:05:21;;;;;;;18.13;6.05;;;;;;;;;;4990950;28;20482;-69
2021/10/27 17:07:47;;;;;;;11.20;5.55;;;;;;;;;;5008516;28;20390;-69
2021/10/27 17:10:15;;;;;;;9.73;5.05;;;;;;;;;;5006463;28;20133;-69
2021/10/27 17:12:42;;;;;;;14.70;5.55;;;;;;;;;;5012341;28;20050;-70
2021/10/27 17:15:08;;;;;;;11.88;5.70;;;;;;;;;;5009966;28;20556;-69
2021/10/27 17:17:35;;;;;;;15.85;5.97;;;;;;;;;;5010523;28;20091;-70
2021/10/27 17:20:01;;;;;;;9.18;5.82;;;;;;;;;;5009325;28;20077;-70
2021/10/27 17:22:29;;;;;;;15.02;6.03;;;;;;;;;;4991645;28;20042;-70
2021/10/27 17:24:56;;;;;;;12.00;6.57;;;;;;;;;;5008633;28;20042;-70
2021/10/27 17:27:23;;;;;;;15.88;6.45;;;;;;;;;;5012221;28;20073;-70
2021/10/27 17:29:49;;;;;;;15.35;6.57;;;;;;;;;;5009178;28;20080;-70
2021/10/27 17:32:16;;;;;;;17.17;8.77;;;;;;;;;;5011695;28;20096;-69
2021/10/27 17:34:43;;;;;;;15.45;8.75;;;;;;;;;;5013003;28;20049;-69
2021/10/27 17:37:10;;;;;;;16.92;9.18;;;;;;;;;;5011119;28;20053;-70
2021/10/27 17:39:38;;;;;;;19.00;9.52;;;;;;;;;;5011410;28;20045;-69
2021/10/27 17:42:06;;;;;;;16.45;9.52;;;;;;;;;;5008723;28;20617;-70
2021/10/27 17:44:32;;;;;;;19.58;11.05;;;;;;;;;;5009557;28;21397;-70
2021/10/27 17:47:03;;;;;;;18.40;11.73;;;;;;;;;;5025754;28;20049;-69
2021/10/27 17:49:36;;;;;;;18.00;12.10;;;;;;;;;;5008000;28;20115;-70
2021/10/27 18:00:03;;;;;;;23.45;13.57;;;;;;;;;;5034595;28;20046;-70
2021/10/27 18:02:29;;;;;;;22.00;13.95;;;;;;;;;;5002699;28;20065;-70
2021/10/27 18:04:55;;;;;;;19.45;14.32;;;;;;;;;;5009339;28;20152;-70
2021/10/27 18:07:26;;;;;;;21.08;14.63;;;;;;;;;;5006886;28;20042;-70
2021/10/27 18:09:52;;;;;;;18.70;13.88;;;;;;;;;;5020813;28;20142;-70
2021/10/27 18:12:22;;;;;;;20.35;14.52;;;;;;;;;;5022407;28;20065;-70
2021/10/27 18:14:48;;;;;;;20.90;13.77;;;;;;;;;;5010671;28;20046;-70
2021/10/27 18:17:18;;;;;;;22.00;13.60;;;;;;;;;;5012417;28;20045;-70
2021/10/27 18:19:53;;;;;;;20.83;14.20;;;;;;;;;;5011012;28;20052;-70
2021/10/27 18:22:26;;;;;;;23.98;14.70;;;;;;;;;;5023923;28;20059;-70
2021/10/27 18:25:08;;;;;;;16.60;14.00;;;;;;;;;;5022145;28;20053;-70
2021/10/27 18:27:51;;;;;;;19.08;13.70;;;;;;;;;;5009806;28;20113;-70
2021/10/27 18:38:40;;;;;;;21.92;14.93;;;;;;;;;;5041057;28;20397;-70
2021/10/27 18:43:43;;;;;;;22.20;15.38;;;;;;;;;;5025016;28;20073;-70
2021/10/27 18:46:09;;;;;;;18.08;14.38;;;;;;;;;;5009450;28;20054;-70